createdAt,value
2022-12-28T00:01:16.217Z,17.03
2022-12-28T00:03:43.434Z,12.50
2022-12-28T00:06:11.315Z,10.20
2022-12-28T00:08:38.686Z,11.10
2022-12-28T00:11:11.378Z,10.23
2022-12-28T00:13:41.682Z,9.57
2022-12-28T00:16:08.977Z,10.60
2022-12-28T00:18:37.015Z,9.68
2022-12-28T00:21:04.955Z,10.20
2022-12-28T00:23:32.098Z,9.68
2022-12-28T00:26:12.918Z,9.53
2022-12-28T00:28:40.113Z,9.63
2022-12-28T00:31:07.441Z,8.88
2022-12-28T00:33:34.656Z,10.63
2022-12-28T00:36:02.783Z,11.33
2022-12-28T00:38:32.038Z,12.87
2022-12-28T00:40:59.286Z,10.95
2022-12-28T00:43:26.405Z,11.03
2022-12-28T00:45:53.403Z,10.77
2022-12-28T00:48:20.375Z,9.97
2022-12-28T00:50:47.410Z,10.27
2022-12-28T00:53:14.691Z,11.37
2022-12-28T00:55:42.460Z,9.10
2022-12-28T00:58:09.469Z,9.77
2022-12-28T01:00:37.024Z,9.20
2022-12-28T01:03:04.102Z,9.90
2022-12-28T01:05:30.626Z,8.77
2022-12-28T01:07:57.605Z,9.33
2022-12-28T01:10:24.803Z,10.43
2022-12-28T01:12:51.906Z,9.52
2022-12-28T01:15:18.968Z,9.35
2022-12-28T01:17:45.961Z,9.25
2022-12-28T01:20:13.026Z,10.97
2022-12-28T01:22:40.141Z,9.30
2022-12-28T01:25:07.121Z,9.93
2022-12-28T01:27:34.372Z,9.40
2022-12-28T01:30:01.223Z,10.50
2022-12-28T01:32:28.200Z,9.50
2022-12-28T01:34:55.393Z,10.15
2022-12-28T01:37:22.378Z,10.07
2022-12-28T01:39:49.527Z,10.87
2022-12-28T01:42:17.269Z,10.27
2022-12-28T01:44:46.031Z,10.52
2022-12-28T01:47:15.322Z,9.37
2022-12-28T01:50:00.889Z,8.80
2022-12-28T01:52:45.704Z,9.60
2022-12-28T01:55:17.646Z,10.02
2022-12-28T01:58:04.774Z,10.43
2022-12-28T02:00:31.935Z,10.43
2022-12-28T02:03:05.067Z,10.83
2022-12-28T02:05:36.094Z,11.38
2022-12-28T02:08:06.337Z,11.60
2022-12-28T02:10:40.457Z,10.82
2022-12-28T02:13:13.167Z,10.57
2022-12-28T02:15:40.442Z,11.57
2022-12-28T02:18:07.444Z,10.63
2022-12-28T02:20:42.693Z,9.37
2022-12-28T02:23:24.706Z,10.30
2022-12-28T02:26:01.346Z,11.30
2022-12-28T02:28:55.607Z,11.13
2022-12-28T02:33:52.620Z,15.67
2022-12-28T02:36:29.171Z,16.23
2022-12-28T02:38:58.994Z,12.57
2022-12-28T02:41:26.740Z,19.13
2022-12-28T02:43:54.143Z,17.50
2022-12-28T02:46:47.459Z,12.25
2022-12-28T02:49:36.051Z,40.77
2022-12-28T02:52:12.096Z,22.60
2022-12-28T02:55:03.962Z,51.77
2022-12-28T02:57:49.398Z,35.13
2022-12-28T03:00:17.624Z,66.50
2022-12-28T03:02:53.946Z,43.90
2022-12-28T03:06:19.129Z,44.83
2022-12-28T03:08:46.368Z,108.37
2022-12-28T03:11:17.019Z,77.30
2022-12-28T03:13:50.048Z,37.40
2022-12-28T03:17:02.110Z,13.65
2022-12-28T03:19:50.042Z,9.73
2022-12-28T03:22:36.324Z,8.77
2022-12-28T03:25:25.886Z,11.13
2022-12-28T03:28:12.415Z,20.80
2022-12-28T03:30:59.414Z,47.70
2022-12-28T03:33:26.411Z,50.37
2022-12-28T03:36:01.374Z,52.80
2022-12-28T03:38:54.812Z,136.17
2022-12-28T03:41:29.253Z,142.27
2022-12-28T03:43:59.122Z,73.77
2022-12-28T03:46:30.950Z,107.73
2022-12-28T03:48:58.745Z,52.00
2022-12-28T03:51:26.671Z,46.17
2022-12-28T03:53:53.965Z,74.40
2022-12-28T03:56:25.705Z,88.70
2022-12-28T03:58:53.452Z,105.30
2022-12-28T04:01:20.679Z,100.13
2022-12-28T04:03:47.956Z,77.63
2022-12-28T04:06:16.956Z,76.57
2022-12-28T04:08:44.218Z,109.33
2022-12-28T04:11:11.361Z,98.00
2022-12-28T04:13:38.623Z,76.83
2022-12-28T04:16:07.011Z,161.53
2022-12-28T04:18:39.957Z,118.33
2022-12-28T04:21:06.872Z,57.42
2022-12-28T04:23:34.078Z,59.90
2022-12-28T04:26:02.451Z,41.03
2022-12-28T04:28:30.018Z,49.77
2022-12-28T04:30:57.761Z,98.07
2022-12-28T04:33:25.152Z,61.50
2022-12-28T04:35:52.254Z,31.30
2022-12-28T04:38:19.796Z,69.73
2022-12-28T04:40:46.807Z,68.93
2022-12-28T04:43:13.924Z,52.60
2022-12-28T04:45:40.982Z,21.63
2022-12-28T04:48:07.913Z,12.90
2022-12-28T04:50:36.563Z,14.07
2022-12-28T04:53:03.561Z,23.50
2022-12-28T04:55:32.015Z,13.63
2022-12-28T04:58:00.088Z,25.07
2022-12-28T05:00:27.157Z,67.33
2022-12-28T05:02:54.253Z,27.00
2022-12-28T05:05:21.439Z,16.93
2022-12-28T05:07:48.510Z,13.90
2022-12-28T05:10:15.494Z,12.37
2022-12-28T05:12:42.489Z,11.33
2022-12-28T05:15:09.781Z,14.10
2022-12-28T05:17:36.868Z,12.47
2022-12-28T05:20:04.679Z,12.27
2022-12-28T05:22:35.086Z,12.73
2022-12-28T05:25:04.862Z,14.30
2022-12-28T05:27:31.957Z,13.67
2022-12-28T05:29:58.875Z,14.10
2022-12-28T05:32:25.800Z,14.33
2022-12-28T05:34:52.910Z,14.43
2022-12-28T05:37:22.278Z,15.27
2022-12-28T05:39:49.690Z,17.43
2022-12-28T05:42:16.665Z,17.80
2022-12-28T05:44:43.955Z,16.27
2022-12-28T05:47:11.213Z,19.67
2022-12-28T05:49:38.558Z,18.97
2022-12-28T05:52:05.795Z,16.77
2022-12-28T05:54:32.828Z,15.93
2022-12-28T05:57:00.173Z,16.07
2022-12-28T05:59:27.481Z,15.10
2022-12-28T06:01:54.828Z,15.37
2022-12-28T06:04:22.270Z,15.00
2022-12-28T06:06:57.331Z,16.20
2022-12-28T06:09:24.460Z,14.83
2022-12-28T06:11:51.448Z,16.37
2022-12-28T06:14:18.809Z,16.43
2022-12-28T06:16:46.463Z,20.73
2022-12-28T06:19:15.865Z,16.93
2022-12-28T06:21:43.049Z,17.77
2022-12-28T06:24:11.215Z,16.40
2022-12-28T06:26:39.854Z,17.70
2022-12-28T06:29:07.324Z,17.27
2022-12-28T06:31:35.324Z,18.27
2022-12-28T06:34:03.403Z,17.73
2022-12-28T06:36:34.480Z,17.90
2022-12-28T06:39:01.957Z,15.97
2022-12-28T06:41:29.334Z,16.10
2022-12-28T06:43:56.761Z,15.80
2022-12-28T06:46:24.875Z,16.50
2022-12-28T06:48:51.939Z,17.70
2022-12-28T06:51:23.620Z,17.30
2022-12-28T06:53:51.719Z,17.47
2022-12-28T06:56:20.504Z,17.67
2022-12-28T06:58:48.323Z,47.77
2022-12-28T07:01:16.762Z,140.60
2022-12-28T07:03:44.630Z,86.30
2022-12-28T07:06:12.400Z,47.73
2022-12-28T07:08:40.957Z,58.97
2022-12-28T07:11:15.598Z,127.00
2022-12-28T07:13:43.138Z,46.73
2022-12-28T07:16:20.309Z,30.23
2022-12-28T07:18:47.663Z,25.10
2022-12-28T07:21:16.962Z,23.80
2022-12-28T07:23:43.827Z,23.97
2022-12-28T07:26:12.374Z,23.83
2022-12-28T07:28:40.435Z,23.13
2022-12-28T07:31:08.576Z,24.77
2022-12-28T07:33:36.331Z,22.80
2022-12-28T07:36:04.151Z,22.67
2022-12-28T07:38:31.282Z,17.65
2022-12-28T07:41:05.597Z,18.30
2022-12-28T07:43:33.053Z,16.17
2022-12-28T07:46:01.587Z,16.27
2022-12-28T07:48:29.111Z,17.55
2022-12-28T07:50:56.051Z,19.35
2022-12-28T07:53:23.357Z,20.58
2022-12-28T07:55:57.338Z,23.70
2022-12-28T07:58:24.465Z,65.68
2022-12-28T08:00:51.543Z,62.22
2022-12-28T08:03:19.790Z,28.83
2022-12-28T08:05:47.148Z,39.47
2022-12-28T08:08:14.005Z,27.27
2022-12-28T08:10:41.369Z,20.42
2022-12-28T08:13:08.350Z,17.02
2022-12-28T08:15:35.722Z,15.80
2022-12-28T08:18:02.670Z,16.20
2022-12-28T08:20:29.985Z,16.25
2022-12-28T08:22:56.790Z,14.95
2022-12-28T08:25:23.781Z,19.83
2022-12-28T08:27:51.102Z,16.25
2022-12-28T08:30:18.469Z,14.60
2022-12-28T08:32:45.589Z,15.27
2022-12-28T08:35:12.600Z,16.30
2022-12-28T08:37:39.711Z,14.93
2022-12-28T08:40:07.039Z,16.42
2022-12-28T08:42:34.229Z,14.55
2022-12-28T08:45:01.176Z,12.98
2022-12-28T08:47:28.899Z,10.52
2022-12-28T08:49:56.111Z,11.77
2022-12-28T08:52:25.240Z,12.40
2022-12-28T08:54:52.513Z,10.05
2022-12-28T08:57:19.386Z,10.13
2022-12-28T08:59:46.694Z,24.98
2022-12-28T09:02:13.927Z,20.10
2022-12-28T09:04:41.851Z,50.55
2022-12-28T09:07:09.087Z,17.10
2022-12-28T09:09:36.320Z,13.95
2022-12-28T09:12:03.656Z,10.30
2022-12-28T09:14:31.015Z,10.45
2022-12-28T09:16:58.953Z,9.45
2022-12-28T09:19:26.226Z,9.20
2022-12-28T09:21:53.704Z,10.98
2022-12-28T09:24:21.005Z,8.38
2022-12-28T09:26:48.290Z,7.40
2022-12-28T09:29:15.886Z,11.55
2022-12-28T09:31:44.538Z,9.13
2022-12-28T09:37:01.706Z,9.05
2022-12-28T09:39:29.169Z,24.77
2022-12-28T09:42:15.362Z,14.13
2022-12-28T09:44:42.436Z,12.82
2022-12-28T09:47:13.158Z,10.55
2022-12-28T09:49:46.592Z,9.85
2022-12-28T09:52:25.917Z,10.85
2022-12-28T09:54:53.599Z,7.70
2022-12-28T09:57:21.146Z,9.15
2022-12-28T09:59:49.656Z,9.80
2022-12-28T10:02:38.407Z,9.13
2022-12-28T10:05:06.023Z,10.88
2022-12-28T10:07:33.413Z,11.20
2022-12-28T10:10:00.629Z,19.38
2022-12-28T10:12:30.063Z,14.82
2022-12-28T10:14:58.025Z,13.40
2022-12-28T10:17:29.310Z,19.70
2022-12-28T10:19:58.240Z,14.57
2022-12-28T10:22:26.166Z,14.40
2022-12-28T10:24:53.781Z,10.00
2022-12-28T10:27:25.131Z,14.20
2022-12-28T10:29:53.179Z,10.75
2022-12-28T10:32:21.208Z,17.45
2022-12-28T10:34:59.464Z,14.13
2022-12-28T10:37:28.099Z,16.25
2022-12-28T10:40:21.377Z,14.15
2022-12-28T10:42:51.672Z,11.40
2022-12-28T10:45:20.936Z,12.90
2022-12-28T10:47:49.567Z,16.13
2022-12-28T10:50:37.413Z,9.80
2022-12-28T10:53:05.069Z,13.18
2022-12-28T10:55:33.953Z,8.52
2022-12-28T10:58:29.160Z,10.40
2022-12-28T11:00:58.938Z,11.00
2022-12-28T11:03:27.405Z,18.60
2022-12-28T11:06:27.070Z,19.90
2022-12-28T11:09:00.257Z,9.80
2022-12-28T11:11:27.419Z,19.50
2022-12-28T11:14:11.857Z,30.27
2022-12-28T11:16:40.512Z,22.27
2022-12-28T11:19:07.732Z,30.80
2022-12-28T11:21:35.509Z,51.95
2022-12-28T11:24:03.001Z,50.60
2022-12-28T11:26:33.809Z,77.63
2022-12-28T11:29:01.609Z,50.58
2022-12-28T11:31:31.607Z,17.67
2022-12-28T11:34:00.525Z,16.83
2022-12-28T11:36:28.223Z,17.13
2022-12-28T11:38:56.843Z,16.60
2022-12-28T11:41:33.744Z,19.75
2022-12-28T11:44:03.457Z,15.40
2022-12-28T11:46:30.520Z,17.77
2022-12-28T11:49:04.004Z,15.95
2022-12-28T11:51:35.102Z,14.40
2022-12-28T11:54:03.597Z,25.98
2022-12-28T11:56:33.844Z,9.40
2022-12-28T11:59:02.552Z,12.13
2022-12-28T12:01:34.312Z,11.73
2022-12-28T12:04:01.633Z,13.50
2022-12-28T12:06:44.335Z,22.70
2022-12-28T12:09:26.867Z,27.90
2022-12-28T12:11:54.008Z,17.17
2022-12-28T12:14:27.071Z,20.10
2022-12-28T12:17:03.443Z,9.18
2022-12-28T12:19:33.293Z,13.32
2022-12-28T12:22:21.741Z,19.00
2022-12-28T12:25:07.090Z,14.82
2022-12-28T12:27:42.009Z,13.45
2022-12-28T12:30:14.867Z,11.63
2022-12-28T12:32:46.069Z,10.77
2022-12-28T12:35:22.878Z,11.48
2022-12-28T12:38:14.738Z,12.85
2022-12-28T12:40:44.739Z,9.70
2022-12-28T12:43:20.867Z,9.00
2022-12-28T12:46:06.808Z,10.48
2022-12-28T12:48:33.834Z,15.73
2022-12-28T12:51:06.978Z,11.02
2022-12-28T12:53:48.858Z,11.02
2022-12-28T12:56:19.234Z,14.45
2022-12-28T12:58:49.147Z,15.45
2022-12-28T13:01:33.313Z,14.10
2022-12-28T13:04:07.435Z,9.95
2022-12-28T13:06:35.779Z,10.90
2022-12-28T13:09:05.896Z,11.73
2022-12-28T13:11:36.034Z,10.68
2022-12-28T13:14:03.314Z,8.68
2022-12-28T13:16:31.772Z,10.13
2022-12-28T13:19:00.116Z,12.45
2022-12-28T13:21:28.446Z,10.68
2022-12-28T13:23:55.817Z,26.48
2022-12-28T13:26:26.380Z,16.30
2022-12-28T13:28:58.658Z,16.50
2022-12-28T13:31:35.883Z,20.55
2022-12-28T13:34:04.648Z,20.05
2022-12-28T13:36:32.149Z,38.10
2022-12-28T13:39:19.196Z,33.92
2022-12-28T13:41:49.299Z,34.45
2022-12-28T13:44:16.357Z,22.92
2022-12-28T13:46:45.254Z,33.78
2022-12-28T13:49:13.108Z,22.63
2022-12-28T13:51:41.404Z,25.70
2022-12-28T13:54:10.290Z,31.50
2022-12-28T13:56:38.881Z,36.20
2022-12-28T13:59:09.448Z,15.93
2022-12-28T14:01:39.525Z,25.98
2022-12-28T14:04:51.913Z,19.23
2022-12-28T14:07:15.395Z,64.70
2022-12-28T14:09:43.050Z,37.88
2022-12-28T14:12:10.714Z,17.05
2022-12-28T14:14:38.844Z,20.52
2022-12-28T14:17:06.411Z,26.02
2022-12-28T14:19:37.074Z,19.15
2022-12-28T14:22:24.346Z,19.05
2022-12-28T14:25:01.121Z,24.65
2022-12-28T14:27:28.320Z,18.90
2022-12-28T14:29:55.944Z,22.90
2022-12-28T14:32:23.164Z,22.65
2022-12-28T14:34:55.850Z,28.90
2022-12-28T14:37:25.120Z,28.23
2022-12-28T14:39:52.350Z,21.88
2022-12-28T14:42:21.042Z,19.75
2022-12-28T14:44:54.134Z,33.50
2022-12-28T14:47:32.312Z,24.60
2022-12-28T14:50:00.751Z,38.67
2022-12-28T14:52:34.474Z,28.92
2022-12-28T14:57:35.686Z,24.95
2022-12-28T15:00:05.432Z,29.60
2022-12-28T15:02:35.869Z,26.85
2022-12-28T15:05:03.068Z,30.63
2022-12-28T15:07:31.614Z,21.23
2022-12-28T15:09:58.831Z,12.13
2022-12-28T15:12:25.956Z,10.90
2022-12-28T15:14:53.291Z,11.20
2022-12-28T15:17:20.632Z,14.82
2022-12-28T15:19:47.679Z,35.58
2022-12-28T15:22:14.774Z,15.77
2022-12-28T15:24:45.757Z,13.75
2022-12-28T15:27:13.104Z,17.42
2022-12-28T15:30:04.268Z,13.73
2022-12-28T15:32:28.049Z,13.82
2022-12-28T15:34:55.701Z,14.32
2022-12-28T15:37:22.857Z,11.90
2022-12-28T15:39:49.903Z,16.08
2022-12-28T15:42:17.033Z,15.45
2022-12-28T15:44:44.371Z,17.20
2022-12-28T15:47:11.468Z,14.27
2022-12-28T15:49:38.476Z,18.30
2022-12-28T15:52:05.750Z,19.48
2022-12-28T15:54:33.085Z,14.68
2022-12-28T15:57:00.186Z,20.80
2022-12-28T15:59:28.206Z,25.20
2022-12-28T16:01:55.517Z,37.65
2022-12-28T16:04:22.697Z,39.80
2022-12-28T16:06:50.112Z,26.52
2022-12-28T16:09:17.360Z,34.00
2022-12-28T16:11:46.538Z,33.08
2022-12-28T16:14:16.393Z,22.10
2022-12-28T16:16:43.988Z,25.02
2022-12-28T16:19:13.039Z,23.38
2022-12-28T16:21:40.288Z,20.13
2022-12-28T16:24:07.669Z,20.05
2022-12-28T16:26:34.854Z,22.88
2022-12-28T16:29:02.257Z,79.45
2022-12-28T16:31:30.584Z,33.20
2022-12-28T16:34:04.471Z,35.20
2022-12-28T16:36:31.689Z,30.63
2022-12-28T16:38:58.527Z,31.83
2022-12-28T16:41:27.842Z,16.50
2022-12-28T16:44:03.810Z,20.25
2022-12-28T16:46:31.071Z,22.48
2022-12-28T16:49:00.282Z,30.60
2022-12-28T16:51:27.369Z,19.88
2022-12-28T16:53:54.798Z,29.25
2022-12-28T16:56:21.849Z,35.33
2022-12-28T16:58:49.636Z,38.83
2022-12-28T17:01:17.034Z,27.17
2022-12-28T17:03:44.306Z,38.25
2022-12-28T17:06:11.616Z,38.70
2022-12-28T17:08:38.668Z,48.83
2022-12-28T17:11:09.668Z,38.92
2022-12-28T17:13:37.350Z,24.15
2022-12-28T17:16:04.795Z,26.50
2022-12-28T17:18:32.256Z,27.60
2022-12-28T17:21:03.377Z,26.00
2022-12-28T17:23:33.867Z,28.25
2022-12-28T17:26:01.131Z,20.17
2022-12-28T17:28:29.562Z,30.48
2022-12-28T17:31:03.907Z,30.50
2022-12-28T17:33:37.135Z,30.13
2022-12-28T17:36:06.616Z,20.80
2022-12-28T17:38:33.599Z,31.33
2022-12-28T17:41:00.806Z,28.05
2022-12-28T17:43:27.846Z,28.05
2022-12-28T17:45:55.036Z,16.42
2022-12-28T17:48:27.440Z,16.65
2022-12-28T17:50:54.419Z,31.17
2022-12-28T17:53:21.688Z,19.83
2022-12-28T17:55:49.221Z,19.17
2022-12-28T17:58:16.203Z,14.00
2022-12-28T18:00:43.664Z,26.45
2022-12-28T18:03:10.964Z,28.35
2022-12-28T18:05:38.084Z,23.23
2022-12-28T18:08:05.294Z,10.90
2022-12-28T18:10:32.475Z,16.98
2022-12-28T18:12:59.664Z,11.65
2022-12-28T18:15:32.816Z,9.90
2022-12-28T18:18:00.791Z,10.07
2022-12-28T18:20:27.923Z,10.57
2022-12-28T18:22:55.197Z,13.20
2022-12-28T18:25:22.284Z,11.30
2022-12-28T18:27:49.403Z,12.00
2022-12-28T18:30:16.901Z,9.82
2022-12-28T18:32:44.036Z,10.35
2022-12-28T18:35:12.400Z,11.65
2022-12-28T18:37:39.171Z,9.18
2022-12-28T18:40:06.682Z,10.27
2022-12-28T18:42:33.909Z,9.43
2022-12-28T18:45:01.250Z,11.75
2022-12-28T18:47:33.228Z,9.55
2022-12-28T18:50:00.624Z,8.85
2022-12-28T18:52:28.187Z,11.80
2022-12-28T18:54:55.169Z,9.25
2022-12-28T18:57:22.373Z,8.55
2022-12-28T18:59:49.289Z,9.60
2022-12-28T19:02:19.726Z,9.40
2022-12-28T19:04:48.678Z,9.77
2022-12-28T19:07:16.766Z,8.68
2022-12-28T19:10:09.849Z,10.02
2022-12-28T19:12:39.329Z,8.75
2022-12-28T19:15:06.700Z,9.68
2022-12-28T19:17:34.149Z,9.48
2022-12-28T19:20:01.452Z,9.13
2022-12-28T19:22:28.882Z,9.68
2022-12-28T19:24:55.315Z,10.02
2022-12-28T19:27:22.306Z,9.65
2022-12-28T19:29:51.063Z,19.23
2022-12-28T19:32:18.450Z,32.53
2022-12-28T19:34:45.710Z,163.45
2022-12-28T19:37:12.839Z,91.35
2022-12-28T19:39:40.009Z,43.95
2022-12-28T19:42:07.304Z,101.32
2022-12-28T19:44:34.417Z,24.20
2022-12-28T19:47:01.567Z,75.22
2022-12-28T19:49:28.560Z,208.88
2022-12-28T19:51:56.418Z,139.48
2022-12-28T19:54:23.933Z,62.63
2022-12-28T19:56:51.009Z,56.10
2022-12-28T19:59:18.190Z,35.47
2022-12-28T20:01:45.273Z,85.75
2022-12-28T20:04:14.258Z,104.28
2022-12-28T20:06:43.479Z,42.90
2022-12-28T20:09:10.978Z,35.45
2022-12-28T20:11:38.781Z,87.50
2022-12-28T20:14:06.282Z,65.85
2022-12-28T20:16:34.710Z,184.40
2022-12-28T20:19:02.244Z,63.65
2022-12-28T20:21:29.486Z,121.80
2022-12-28T20:23:57.006Z,77.68
2022-12-28T20:26:25.515Z,97.68
2022-12-28T20:28:53.687Z,220.23
2022-12-28T20:31:21.204Z,113.57
2022-12-28T20:33:48.514Z,66.70
2022-12-28T20:36:20.124Z,119.50
2022-12-28T20:38:47.822Z,82.97
2022-12-28T20:41:35.485Z,57.65
2022-12-28T20:44:04.428Z,53.90
2022-12-28T20:46:31.627Z,45.28
2022-12-28T20:48:59.803Z,97.28
2022-12-28T20:51:27.472Z,85.78
2022-12-28T20:53:55.749Z,63.13
2022-12-28T20:56:23.432Z,33.25
2022-12-28T20:58:50.809Z,33.60
2022-12-28T21:01:18.016Z,27.23
2022-12-28T21:03:45.516Z,26.15
2022-12-28T21:06:15.019Z,38.03
2022-12-28T21:08:42.129Z,17.15
2022-12-28T21:11:09.403Z,29.30
2022-12-28T21:13:40.864Z,156.30
2022-12-28T21:16:11.889Z,70.05
2022-12-28T21:18:39.353Z,175.38
2022-12-28T21:21:06.795Z,69.22
2022-12-28T21:23:33.923Z,39.58
2022-12-28T21:26:08.345Z,31.05
2022-12-28T21:28:35.400Z,44.40
2022-12-28T21:31:05.395Z,25.63
2022-12-28T21:33:33.275Z,25.35
2022-12-28T21:36:01.772Z,30.42
2022-12-28T21:38:29.350Z,28.40
2022-12-28T21:40:57.624Z,27.75
2022-12-28T21:43:24.642Z,17.63
2022-12-28T21:46:02.863Z,16.90
2022-12-28T21:48:33.957Z,48.47
2022-12-28T21:51:04.663Z,16.33
2022-12-28T21:53:31.764Z,13.70
2022-12-28T21:55:58.932Z,16.23
2022-12-28T21:58:26.274Z,12.50
2022-12-28T22:01:16.082Z,12.18
2022-12-28T22:04:01.950Z,14.60
2022-12-28T22:06:29.055Z,13.32
2022-12-28T22:09:14.425Z,12.07
2022-12-28T22:12:00.060Z,12.45
2022-12-28T22:14:27.315Z,14.73
2022-12-28T22:16:54.620Z,12.52
2022-12-28T22:19:21.609Z,13.02
2022-12-28T22:21:48.901Z,11.65
2022-12-28T22:24:16.159Z,12.73
2022-12-28T22:26:43.419Z,12.27
2022-12-28T22:29:10.688Z,12.30
2022-12-28T22:31:40.922Z,17.45
2022-12-28T22:34:08.681Z,13.23
2022-12-28T22:36:35.895Z,16.27
2022-12-28T22:39:02.954Z,12.98
2022-12-28T22:41:30.172Z,13.07
2022-12-28T22:43:57.169Z,11.88
2022-12-28T22:46:24.172Z,12.05
2022-12-28T22:48:51.239Z,12.70
2022-12-28T22:51:18.629Z,14.55
2022-12-28T22:53:45.757Z,12.60
2022-12-28T22:56:20.094Z,12.32
2022-12-28T22:58:47.768Z,12.30
2022-12-28T23:01:16.471Z,13.00
2022-12-28T23:03:44.565Z,12.23
2022-12-28T23:06:12.447Z,12.05
2022-12-28T23:08:39.563Z,11.40
2022-12-28T23:11:30.588Z,12.27
2022-12-28T23:14:19.798Z,10.90
2022-12-28T23:16:47.136Z,11.95
2022-12-28T23:19:32.775Z,11.45
2022-12-28T23:22:31.720Z,11.13
2022-12-28T23:25:17.431Z,10.20
2022-12-28T23:27:45.666Z,10.48
2022-12-28T23:30:14.384Z,10.50
2022-12-28T23:32:41.477Z,10.52
2022-12-28T23:35:09.090Z,10.57
2022-12-28T23:37:36.233Z,10.32
2022-12-28T23:40:03.345Z,11.15
2022-12-28T23:42:30.527Z,10.05
2022-12-28T23:44:57.443Z,10.10
2022-12-28T23:47:24.383Z,10.85
2022-12-28T23:49:51.662Z,10.00
2022-12-28T23:52:23.807Z,9.80
2022-12-28T23:54:52.850Z,10.48
2022-12-28T23:57:20.235Z,9.63
2022-12-28T23:59:47.093Z,8.82
